Etusivu
METAR-TAF:

METAR-TAF

Lentoasemat :

Marrakech, Marokko

Leveyspiiri: 31-37N, Pituuspiiri: 008-02W, korkeus merenpinnasta: 468 m

Tämänhetkinen sää

Tämä raportti tehtiin 40 minuuttia sitten, kello 04.00 UTC
Tuuli 3 kn lännestä/lounaasta
Lämpötila 10°C
Kosteus 71%
Ilmanpaine 1021 hPa
Näkyvyys 10 km tai enemmän
ei pilviä alle 1500 m:ssä eikä cumulonimbus-pilviä

METAR: GMMX 270400Z 24003KT CAVOK 10/05 Q1021 NOSIG

Aika: 05:40 (04:40 UTC)

Sääennuste

Tämä raportti tehtiin 5 tuntia ja 40 minuuttia sitten, kello 23.00 UTC
Ennuste voimassa 27. päivästä klo 00 UTC - 28. päivään klo 06 UTC
Tuuli 6 kn idästä
Näkyvyys: 8000 m
Ajoittain
27. päivästä klo 15 UTC - 27. päivään klo 21 UTC
Tuuli 16 kn pohjoisen/luoteesta

TAF: GMMX 262300Z 2700/2806 08006KT 8000 NSC TEMPO 2715/2721 34016KT

Säähavainnot ja -ennusteet yli 4000 lentoasemalta (METAR- ja TAF-raportit).

Käytössä olevat sääasemat on merkitty karttaan keltaisilla ja punaisilla pisteillä.

Aseta hiiri pisteen päälle nähdäksesi sääaseman nimen.

Klikkaa sitten nähdäksesi säähavainnot ja -ennusteet.

Kartan vaihtaminen: klikkaa mustalla rastilla varustettuja vihreitä pisteitä, niin voit zoomata sisään; viivalla varustettua vihreää pistettä, niin voit zoomata ulos tai vihreitä nuolia, niin pääset viereisille kartoille.


METAR-TAF: